createdAt,value
2023-05-09T00:00:31.042Z,7.00
2023-05-09T00:03:33.932Z,6.92
2023-05-09T00:06:37.579Z,6.89
2023-05-09T00:09:40.529Z,6.98
2023-05-09T00:12:43.793Z,6.90
2023-05-09T00:15:46.840Z,6.86
2023-05-09T00:18:49.734Z,6.94
2023-05-09T00:21:52.456Z,6.89
2023-05-09T00:24:55.650Z,6.97
2023-05-09T00:27:58.340Z,7.01
2023-05-09T00:31:00.954Z,6.95
2023-05-09T00:34:04.102Z,6.90
2023-05-09T00:37:07.133Z,6.94
2023-05-09T00:40:10.428Z,6.86
2023-05-09T00:43:13.048Z,6.91
2023-05-09T00:46:15.850Z,6.92
2023-05-09T00:49:18.632Z,6.90
2023-05-09T00:52:23.721Z,6.86
2023-05-09T00:55:27.321Z,6.81
2023-05-09T00:58:30.414Z,6.82
2023-05-09T01:01:33.182Z,6.69
2023-05-09T01:04:36.381Z,6.55
2023-05-09T01:07:50.095Z,6.55
2023-05-09T01:11:21.658Z,6.57
2023-05-09T01:14:55.315Z,6.55
2023-05-09T01:18:06.863Z,6.46
2023-05-09T01:21:16.108Z,6.45
2023-05-09T01:24:40.647Z,6.38
2023-05-09T01:27:55.217Z,6.35
2023-05-09T01:30:58.124Z,6.33
2023-05-09T01:34:02.991Z,6.30
2023-05-09T01:37:07.389Z,6.32
2023-05-09T01:40:20.167Z,6.35
2023-05-09T01:43:26.073Z,6.40
2023-05-09T01:46:29.312Z,6.46
2023-05-09T01:49:35.226Z,6.47
2023-05-09T01:52:41.192Z,6.58
2023-05-09T01:55:44.621Z,6.60
2023-05-09T01:58:51.061Z,6.66
2023-05-09T02:01:55.545Z,6.72
2023-05-09T02:04:58.788Z,6.70
2023-05-09T02:08:01.638Z,6.73
2023-05-09T02:11:04.184Z,6.70
2023-05-09T02:14:10.261Z,6.69
2023-05-09T02:17:17.018Z,6.85
2023-05-09T02:20:20.165Z,6.73
2023-05-09T02:23:23.023Z,6.83
2023-05-09T02:26:26.601Z,6.83
2023-05-09T02:29:40.111Z,7.03
2023-05-09T02:32:44.697Z,7.21
2023-05-09T02:35:48.862Z,7.30
2023-05-09T02:38:52.494Z,7.46
2023-05-09T02:41:54.946Z,7.36
2023-05-09T02:44:58.155Z,7.49
2023-05-09T02:48:00.610Z,7.36
2023-05-09T02:51:03.688Z,7.44
2023-05-09T02:54:06.408Z,7.53
2023-05-09T02:57:09.177Z,7.62
2023-05-09T03:00:12.251Z,7.52
2023-05-09T03:03:15.535Z,7.44
2023-05-09T03:06:18.770Z,7.34
2023-05-09T03:09:21.570Z,7.45
2023-05-09T03:12:24.073Z,7.26
2023-05-09T03:15:29.591Z,7.19
2023-05-09T03:18:34.506Z,7.20
2023-05-09T03:21:37.563Z,7.27
2023-05-09T03:24:40.497Z,7.23
2023-05-09T03:27:43.201Z,7.32
2023-05-09T03:30:50.580Z,7.20
2023-05-09T03:33:56.108Z,7.28
2023-05-09T03:37:00.848Z,7.48
2023-05-09T03:40:07.018Z,7.44
2023-05-09T03:43:15.986Z,7.46
2023-05-09T03:46:19.492Z,7.56
2023-05-09T03:49:23.922Z,7.63
2023-05-09T03:52:29.856Z,7.56
2023-05-09T03:55:33.314Z,7.51
2023-05-09T03:58:36.043Z,7.57
2023-05-09T04:01:40.264Z,7.65
2023-05-09T04:04:45.077Z,7.71
2023-05-09T04:07:47.953Z,7.78
2023-05-09T04:10:53.352Z,7.88
2023-05-09T04:13:56.154Z,7.98
2023-05-09T04:17:04.134Z,8.20
2023-05-09T04:20:08.353Z,8.19
2023-05-09T04:23:11.704Z,8.15
2023-05-09T04:26:15.646Z,8.29
2023-05-09T04:29:21.162Z,8.40
2023-05-09T04:32:28.605Z,8.34
2023-05-09T04:35:32.167Z,8.44
2023-05-09T04:38:34.758Z,8.77
2023-05-09T04:41:38.552Z,8.81
2023-05-09T04:44:41.040Z,8.92
2023-05-09T04:47:44.324Z,8.74
2023-05-09T04:50:48.592Z,8.89
2023-05-09T04:53:51.842Z,9.13
2023-05-09T04:57:06.401Z,9.02
2023-05-09T05:00:13.743Z,9.20
2023-05-09T05:03:18.009Z,9.11
2023-05-09T05:06:21.354Z,9.30
2023-05-09T05:09:24.321Z,9.56
2023-05-09T05:12:27.988Z,9.54
2023-05-09T05:15:30.725Z,9.29
2023-05-09T05:18:34.611Z,9.58
2023-05-09T05:21:37.299Z,9.86
2023-05-09T05:24:40.636Z,10.03
2023-05-09T05:27:43.316Z,10.26
2023-05-09T05:30:47.914Z,10.43
2023-05-09T05:33:50.470Z,10.44
2023-05-09T05:36:53.150Z,10.83
2023-05-09T05:39:56.108Z,10.96
2023-05-09T05:43:00.643Z,11.12
2023-05-09T05:46:04.964Z,10.84
2023-05-09T05:49:09.497Z,11.04
2023-05-09T05:52:12.190Z,11.95
2023-05-09T05:55:15.207Z,12.56
2023-05-09T05:58:18.097Z,12.97
2023-05-09T06:01:21.227Z,12.82
2023-05-09T06:04:23.822Z,13.22
2023-05-09T06:07:26.840Z,13.82
2023-05-09T06:10:29.474Z,14.27
2023-05-09T06:13:32.252Z,14.31
2023-05-09T06:16:39.522Z,14.46
2023-05-09T06:19:42.190Z,14.57
2023-05-09T06:22:44.690Z,15.08
2023-05-09T06:25:47.305Z,15.21
2023-05-09T06:28:49.749Z,15.48
2023-05-09T06:31:52.732Z,15.82
2023-05-09T06:34:55.309Z,15.73
2023-05-09T06:37:58.170Z,16.28
2023-05-09T06:41:00.611Z,16.36
2023-05-09T06:44:03.588Z,16.76
2023-05-09T06:47:06.212Z,17.00
2023-05-09T06:50:09.359Z,17.17
2023-05-09T06:53:11.965Z,17.37
2023-05-09T06:56:14.694Z,17.62
2023-05-09T06:59:17.278Z,17.66
2023-05-09T07:02:20.025Z,18.13
2023-05-09T07:05:22.480Z,18.28
2023-05-09T07:08:26.410Z,18.54
2023-05-09T07:11:28.945Z,19.01
2023-05-09T07:14:31.756Z,18.98
2023-05-09T07:17:34.367Z,19.39
2023-05-09T07:20:37.178Z,19.29
2023-05-09T07:23:39.586Z,18.94
2023-05-09T07:26:42.282Z,18.72
2023-05-09T07:29:44.692Z,19.15
2023-05-09T07:32:47.429Z,19.05
2023-05-09T07:35:49.977Z,19.87
2023-05-09T07:38:53.559Z,20.45
2023-05-09T07:41:56.009Z,20.40
2023-05-09T07:44:59.211Z,19.66
2023-05-09T07:48:01.738Z,20.31
2023-05-09T07:51:04.331Z,20.84
2023-05-09T07:54:06.998Z,21.24
2023-05-09T07:57:09.398Z,21.42
2023-05-09T08:00:12.475Z,20.99
2023-05-09T08:03:17.818Z,21.53
2023-05-09T08:06:20.536Z,20.53
2023-05-09T08:12:25.736Z,21.94
2023-05-09T08:15:28.478Z,21.31
2023-05-09T08:18:31.181Z,21.65
2023-05-09T08:21:33.964Z,21.44
2023-05-09T08:24:36.490Z,20.52
2023-05-09T08:27:39.144Z,20.79
2023-05-09T08:30:41.661Z,19.29
2023-05-09T08:33:44.259Z,20.91
2023-05-09T08:36:47.144Z,20.08
2023-05-09T08:39:49.815Z,21.25
2023-05-09T08:42:52.669Z,21.97
2023-05-09T08:46:01.624Z,22.37
2023-05-09T08:49:07.372Z,21.03
2023-05-09T08:52:11.567Z,20.54
2023-05-09T08:55:14.721Z,21.16
2023-05-09T08:58:19.831Z,19.98
2023-05-09T09:01:23.715Z,21.30
2023-05-09T09:04:26.518Z,21.81
2023-05-09T09:07:31.343Z,21.45
2023-05-09T09:10:34.499Z,21.74
2023-05-09T09:13:40.983Z,21.33
2023-05-09T09:16:47.410Z,21.29
2023-05-09T09:19:54.809Z,23.45
2023-05-09T09:23:03.263Z,23.72
2023-05-09T09:26:05.916Z,22.98
2023-05-09T09:29:08.530Z,23.14
2023-05-09T09:32:11.334Z,22.61
2023-05-09T09:35:13.989Z,23.58
2023-05-09T09:38:18.677Z,24.62
2023-05-09T09:41:21.666Z,24.60
2023-05-09T09:44:24.188Z,24.23
2023-05-09T09:47:33.133Z,23.82
2023-05-09T09:50:35.763Z,22.52
2023-05-09T09:53:42.728Z,23.38
2023-05-09T09:56:55.118Z,24.59
2023-05-09T10:00:01.211Z,23.08
2023-05-09T10:03:03.743Z,23.44
2023-05-09T10:06:14.078Z,24.49
2023-05-09T10:09:17.156Z,25.21
2023-05-09T10:12:20.975Z,25.30
2023-05-09T10:15:24.628Z,25.04
2023-05-09T10:18:29.114Z,25.23
2023-05-09T10:21:33.140Z,22.90
2023-05-09T10:24:57.696Z,24.95
2023-05-09T10:28:02.053Z,25.97
2023-05-09T10:31:08.928Z,24.47
2023-05-09T10:34:13.244Z,25.16
2023-05-09T10:37:16.258Z,24.39
2023-05-09T10:40:20.067Z,25.41
2023-05-09T10:43:25.242Z,26.21
2023-05-09T10:46:28.351Z,26.42
2023-05-09T10:49:31.988Z,24.14
2023-05-09T10:52:34.845Z,25.22
2023-05-09T10:55:53.145Z,25.69
2023-05-09T10:58:56.525Z,23.15
2023-05-09T11:02:03.527Z,21.72
2023-05-09T11:05:17.388Z,24.06
2023-05-09T11:08:26.999Z,24.78
2023-05-09T11:11:29.565Z,25.12
2023-05-09T11:14:44.726Z,24.36
2023-05-09T11:17:52.605Z,24.33
2023-05-09T11:20:56.416Z,25.22
2023-05-09T11:23:58.935Z,24.36
2023-05-09T11:27:01.614Z,24.58
2023-05-09T11:30:06.518Z,22.62
2023-05-09T11:33:28.746Z,20.99
2023-05-09T11:36:34.934Z,21.87
2023-05-09T11:40:05.046Z,24.63
2023-05-09T11:43:07.941Z,23.78
2023-05-09T11:46:10.750Z,24.11
2023-05-09T11:49:13.563Z,24.93
2023-05-09T11:52:17.047Z,25.55
2023-05-09T11:55:25.754Z,25.45
2023-05-09T11:58:28.790Z,25.49
2023-05-09T12:01:33.833Z,25.56
2023-05-09T12:04:37.019Z,25.58
2023-05-09T12:07:39.901Z,24.56
2023-05-09T12:10:42.692Z,22.01
2023-05-09T12:13:49.816Z,22.62
2023-05-09T12:16:52.527Z,23.62
2023-05-09T12:19:55.447Z,21.46
2023-05-09T12:22:58.174Z,21.17
2023-05-09T12:26:00.881Z,20.78
2023-05-09T12:29:03.829Z,20.09
2023-05-09T12:32:06.453Z,19.86
2023-05-09T12:35:10.964Z,19.93
2023-05-09T12:38:23.439Z,19.53
2023-05-09T12:44:31.909Z,19.15
2023-05-09T12:47:34.701Z,21.37
2023-05-09T12:50:37.289Z,22.97
2023-05-09T12:53:41.472Z,23.74
2023-05-09T12:56:45.373Z,24.64
2023-05-09T12:59:48.158Z,23.03
2023-05-09T13:02:52.798Z,21.38
2023-05-09T13:06:00.414Z,21.33
2023-05-09T13:09:06.411Z,21.71
2023-05-09T13:12:10.078Z,22.08
2023-05-09T13:15:13.494Z,21.15
2023-05-09T13:18:16.190Z,21.81
2023-05-09T13:21:19.557Z,21.85
2023-05-09T13:24:22.039Z,22.28
2023-05-09T13:27:24.572Z,22.20
2023-05-09T13:30:27.425Z,21.99
2023-05-09T13:33:30.089Z,21.30
2023-05-09T13:36:32.961Z,21.05
2023-05-09T13:39:35.490Z,21.07
2023-05-09T13:42:38.986Z,20.37
2023-05-09T13:45:41.501Z,20.46
2023-05-09T13:48:44.460Z,21.10
2023-05-09T13:51:47.035Z,20.21
2023-05-09T13:54:49.626Z,20.16
2023-05-09T13:57:52.324Z,20.20
2023-05-09T14:00:54.849Z,19.93
2023-05-09T14:03:57.364Z,19.89
2023-05-09T14:07:00.765Z,19.95
2023-05-09T14:13:10.906Z,20.28
2023-05-09T14:16:13.867Z,20.26
2023-05-09T14:19:16.955Z,20.05
2023-05-09T14:22:19.957Z,19.67
2023-05-09T14:25:22.687Z,19.05
2023-05-09T14:28:25.187Z,19.60
2023-05-09T14:31:29.059Z,19.90
2023-05-09T14:34:31.762Z,20.87
2023-05-09T14:37:34.328Z,21.34
2023-05-09T14:40:37.281Z,21.24
2023-05-09T14:43:39.771Z,21.17
2023-05-09T14:46:42.443Z,20.41
2023-05-09T14:49:45.159Z,21.25
2023-05-09T14:52:48.722Z,20.13
2023-05-09T14:55:54.251Z,19.23
2023-05-09T14:58:56.694Z,18.91
2023-05-09T15:01:59.483Z,18.84
2023-05-09T15:05:02.868Z,18.96
2023-05-09T15:08:05.597Z,18.76
2023-05-09T15:11:08.260Z,18.99
2023-05-09T15:14:10.871Z,19.46
2023-05-09T15:17:13.783Z,19.82
2023-05-09T15:20:20.380Z,19.92
2023-05-09T15:23:23.613Z,20.25
2023-05-09T15:26:26.202Z,20.64
2023-05-09T15:29:28.935Z,20.86
2023-05-09T15:32:31.598Z,20.82
2023-05-09T15:35:34.362Z,20.72
2023-05-09T15:38:37.247Z,19.98
2023-05-09T15:41:39.910Z,19.61
2023-05-09T15:44:43.027Z,19.71
2023-05-09T15:47:45.822Z,19.66
2023-05-09T15:50:49.587Z,19.81
2023-05-09T15:53:52.275Z,19.71
2023-05-09T15:56:55.085Z,19.74
2023-05-09T15:59:57.854Z,19.49
2023-05-09T16:03:00.468Z,19.49
2023-05-09T16:06:03.649Z,19.44
2023-05-09T16:09:06.900Z,19.42
2023-05-09T16:12:09.531Z,19.38
2023-05-09T16:15:12.450Z,18.83
2023-05-09T16:18:15.291Z,18.87
2023-05-09T16:21:21.654Z,18.70
2023-05-09T16:24:24.984Z,18.66
2023-05-09T16:27:27.437Z,18.34
2023-05-09T16:30:30.214Z,18.11
2023-05-09T16:33:32.745Z,17.91
2023-05-09T16:36:37.786Z,17.68
2023-05-09T16:39:40.461Z,17.71
2023-05-09T16:42:43.140Z,17.64
2023-05-09T16:45:49.192Z,17.35
2023-05-09T16:48:52.936Z,17.29
2023-05-09T16:51:55.573Z,17.04
2023-05-09T16:54:59.547Z,16.98
2023-05-09T16:58:02.301Z,16.96
2023-05-09T17:01:05.083Z,16.66
2023-05-09T17:04:08.471Z,16.54
2023-05-09T17:07:12.885Z,16.36
2023-05-09T17:10:15.777Z,16.12
2023-05-09T17:13:19.425Z,16.07
2023-05-09T17:16:22.130Z,16.03
2023-05-09T17:19:24.755Z,15.89
2023-05-09T17:22:27.851Z,15.87
2023-05-09T17:25:31.192Z,15.73
2023-05-09T17:28:34.028Z,15.54
2023-05-09T17:31:36.682Z,15.38
2023-05-09T17:34:39.383Z,15.00
2023-05-09T17:37:42.357Z,14.91
2023-05-09T17:40:45.092Z,14.86
2023-05-09T17:43:47.652Z,14.71
2023-05-09T17:46:50.508Z,14.48
2023-05-09T17:49:53.043Z,14.41
2023-05-09T17:52:56.983Z,14.11
2023-05-09T17:55:59.824Z,13.96
2023-05-09T17:59:02.783Z,13.97
2023-05-09T18:02:05.882Z,13.83
2023-05-09T18:05:10.078Z,13.66
2023-05-09T18:08:13.004Z,13.59
2023-05-09T18:11:15.580Z,13.37
2023-05-09T18:14:18.428Z,13.18
2023-05-09T18:17:21.916Z,13.17
2023-05-09T18:20:24.499Z,13.03
2023-05-09T18:23:27.335Z,13.00
2023-05-09T18:26:30.723Z,12.77
2023-05-09T18:29:33.169Z,12.76
2023-05-09T18:32:35.933Z,12.51
2023-05-09T18:35:38.385Z,12.61
2023-05-09T18:38:41.812Z,12.49
2023-05-09T18:41:44.468Z,12.50
2023-05-09T18:44:47.222Z,12.23
2023-05-09T18:47:49.877Z,12.24
2023-05-09T18:50:52.902Z,12.11
2023-05-09T18:53:55.574Z,12.12
2023-05-09T18:56:58.708Z,12.09
2023-05-09T19:00:01.550Z,12.15
2023-05-09T19:03:04.616Z,12.06
2023-05-09T19:06:07.800Z,11.96
2023-05-09T19:09:11.727Z,11.85
2023-05-09T19:12:16.393Z,11.75
2023-05-09T19:15:19.938Z,11.65
2023-05-09T19:18:23.093Z,11.60
2023-05-09T19:21:26.185Z,11.51
2023-05-09T19:24:31.525Z,11.44
2023-05-09T19:27:34.972Z,11.40
2023-05-09T19:30:37.452Z,11.40
2023-05-09T19:33:40.086Z,11.34
2023-05-09T19:36:42.934Z,11.31
2023-05-09T19:39:45.986Z,11.16
2023-05-09T19:42:48.560Z,11.27
2023-05-09T19:45:51.824Z,11.17
2023-05-09T19:48:54.572Z,11.14
2023-05-09T19:51:57.767Z,11.02
2023-05-09T19:55:01.473Z,10.87
2023-05-09T19:58:04.782Z,10.83
2023-05-09T20:01:07.586Z,10.79
2023-05-09T20:04:10.890Z,10.69
2023-05-09T20:07:13.425Z,10.63
2023-05-09T20:10:16.315Z,10.49
2023-05-09T20:13:19.145Z,10.52
2023-05-09T20:16:22.569Z,10.38
2023-05-09T20:19:25.164Z,10.46
2023-05-09T20:22:27.931Z,10.30
2023-05-09T20:25:30.923Z,10.35
2023-05-09T20:28:34.672Z,10.35
2023-05-09T20:31:37.429Z,10.22
2023-05-09T20:34:39.989Z,10.30
2023-05-09T20:37:43.007Z,10.29
2023-05-09T20:40:46.057Z,10.30
2023-05-09T20:43:48.842Z,10.21
2023-05-09T20:46:53.028Z,10.28
2023-05-09T20:49:58.225Z,10.28
2023-05-09T20:53:01.311Z,10.25
2023-05-09T20:56:04.198Z,10.38
2023-05-09T20:59:06.906Z,10.38
2023-05-09T21:02:11.364Z,10.51
2023-05-09T21:05:14.060Z,10.56
2023-05-09T21:08:16.935Z,10.59
2023-05-09T21:11:19.550Z,10.66
2023-05-09T21:14:22.218Z,10.71
2023-05-09T21:17:25.062Z,10.74
2023-05-09T21:20:27.650Z,10.85
2023-05-09T21:23:30.519Z,10.82
2023-05-09T21:26:33.385Z,10.85
2023-05-09T21:29:37.454Z,10.95
2023-05-09T21:32:39.919Z,11.01
2023-05-09T21:35:42.822Z,11.00
2023-05-09T21:38:45.292Z,10.98
2023-05-09T21:41:48.131Z,11.15
2023-05-09T21:44:50.619Z,11.20
2023-05-09T21:47:53.379Z,11.10
2023-05-09T21:50:56.224Z,11.19
2023-05-09T21:53:58.826Z,11.18
2023-05-09T21:57:01.498Z,11.21
2023-05-09T22:00:06.792Z,11.20
2023-05-09T22:03:15.572Z,11.24
2023-05-09T22:06:18.706Z,11.07
2023-05-09T22:09:21.428Z,11.15
2023-05-09T22:12:24.357Z,11.12
2023-05-09T22:15:27.860Z,11.07
2023-05-09T22:18:31.805Z,11.09
2023-05-09T22:21:34.499Z,11.00
2023-05-09T22:24:37.686Z,10.98
2023-05-09T22:27:40.312Z,10.90
2023-05-09T22:30:43.941Z,10.85
2023-05-09T22:33:46.526Z,10.90
2023-05-09T22:36:49.328Z,10.81
2023-05-09T22:39:51.703Z,10.87
2023-05-09T22:42:54.929Z,10.59
2023-05-09T22:45:57.609Z,10.68
2023-05-09T22:49:00.239Z,10.59
2023-05-09T22:52:03.240Z,10.57
2023-05-09T22:55:06.479Z,10.50
2023-05-09T22:58:10.137Z,10.42
2023-05-09T23:01:13.148Z,10.32
2023-05-09T23:04:15.580Z,10.27
2023-05-09T23:07:18.451Z,10.18
2023-05-09T23:10:21.136Z,10.07
2023-05-09T23:13:23.816Z,10.01
2023-05-09T23:16:26.550Z,10.00
2023-05-09T23:19:29.293Z,9.98
2023-05-09T23:22:32.121Z,9.81
2023-05-09T23:25:34.814Z,9.83
2023-05-09T23:28:37.505Z,9.69
2023-05-09T23:31:41.153Z,9.61
2023-05-09T23:34:43.666Z,9.40
2023-05-09T23:37:46.698Z,9.27
2023-05-09T23:40:49.164Z,9.26
2023-05-09T23:43:52.162Z,9.15
2023-05-09T23:46:54.921Z,8.96
2023-05-09T23:49:57.653Z,8.98
2023-05-09T23:53:00.304Z,8.89
2023-05-09T23:56:03.241Z,8.84
2023-05-09T23:59:05.808Z,8.82
